Fairbanks International, AK

4:39 AM AKST on February 14, 2016 (GMT -0900)
19th and Kennedy | | Change Station
CLOSE
Current Station
Personal Weather Station
Location: Fairbanks, AK
Elevation: 440 ft
Nearby Weather Stations

Elev 440 ft 64.83 °N, 147.80 °W | Updated 15 minutes ago

Mostly Cloudy
Mostly Cloudy
1.6 °F
Feels Like 2 °F
N
0.0
Wind Variable Wind from North

Today
High -- | Low -- °F
--% Chance of Precip.
Yesterday
High -- | Low -- °F
Precip. -- in
Pressure 29.52 in
Visibility 9.0 miles
Clouds Mostly Cloudy 10000 ft
Windchill 2 °F
Dew Point 1 °F
Humidity 97%
Rainfall 0.00 in
Snow Depth Not available.
8:54 AM 5:18 PM
Waxing Crescent, 42% visible
METAR PAFA 141253Z COR 03003KT 9SM BKN100 M18/M20 A2949 RMK AO2 SLP997 T11831200 $
Pressure 29.52 in
Visibility 9.0 miles
Clouds Mostly Cloudy 10000 ft
Windchill 2 °F
Dew Point 1 °F
Humidity 97%
Rainfall 0.00 in
Snow Depth Not available.
8:54 AM 5:18 PM
Waxing Crescent, 42% visible
METAR PAFA 141253Z COR 03003KT 9SM BKN100 M18/M20 A2949 RMK AO2 SLP997 T11831200 $

10-Day Weather Forecast

Almanac

Astronomy

Feb. 14, 2016 Rise Set
Actual Time
Civil Twilight
Nautical Twilight
Astronomical Twilight
Moon
Length of Visible Light
Length of Day
Tomorrow will be .
, % of the Moon is Illuminated

Today's Extremes

State Highs State Lows

Community

WunderPhotos

Upload Photos

1,892,790 photos uploaded!

WunderBlog® & News

Nearby

Air Quality

  Air Quality AQ Index Pollutant
Not available.

Snow Depth

Station Depth Elevation

Earthquake Activity

City Distance Mag. Time & Date
Minimum magnitude displayed is 2.5.

Coastal Water Temperatures

Place Temperature

Stations

Nearby Weather Stations

Station Location Temp. Windchill Dew Point Humidity Wind Precip. Elev Updated Type
                   

Watches & Warnings

There are currently no watches in effect.